Time;durP1;ratioP1;P1;durP2;ratioP2;P2;SDS_P1;SDS_P2;PMS_P1;PMS_P2;Temp;Humidity;BMP_temperature;BMP_pressure;BME280_temperature;BME280_humidity;BME280_pressure;Samples;Min_cycle;Max_cycle;Signal;HPM_P1;HPM_P2
2023/10/21 00:00:25;;;;;;;3.87;2.00;;;13.80;80.90;;;;;;5009056;28;20434;-69
2023/10/21 00:02:51;;;;;;;2.60;2.07;;;13.80;81.10;;;;;;5007815;28;20552;-69
2023/10/21 00:05:17;;;;;;;2.90;1.93;;;13.80;81.20;;;;;;5010955;28;20977;-69
2023/10/21 00:07:43;;;;;;;2.90;1.70;;;13.80;81.20;;;;;;5009364;28;20628;-68
2023/10/21 00:10:08;;;;;;;3.17;1.80;;;13.80;81.40;;;;;;5012353;28;20448;-69
2023/10/21 00:12:35;;;;;;;2.63;1.70;;;13.80;81.10;;;;;;5004785;28;20452;-69
2023/10/21 00:15:01;;;;;;;3.30;1.70;;;13.90;80.90;;;;;;5006478;28;20205;-69
2023/10/21 00:17:28;;;;;;;2.70;1.80;;;13.90;80.80;;;;;;5006310;28;20569;-71
2023/10/21 00:19:53;;;;;;;2.33;1.10;;;13.90;80.80;;;;;;5004194;28;20429;-68
2023/10/21 00:22:19;;;;;;;1.83;1.37;;;14.10;79.50;;;;;;5003061;28;20526;-70
2023/10/21 00:24:45;;;;;;;1.83;1.10;;;14.30;78.40;;;;;;5009556;28;20192;-68
2023/10/21 00:27:10;;;;;;;2.60;1.20;;;14.60;77.60;;;;;;5009410;28;20226;-68
2023/10/21 00:29:36;;;;;;;1.63;0.97;;;14.80;76.50;;;;;;5012167;28;20802;-68
2023/10/21 00:32:04;;;;;;;1.77;1.00;;;14.90;76.10;;;;;;5008149;28;20219;-70
2023/10/21 00:34:30;;;;;;;2.60;1.27;;;15.00;75.70;;;;;;5007077;28;20195;-68
2023/10/21 00:36:56;;;;;;;1.10;0.83;;;15.10;75.40;;;;;;5001792;28;20461;-67
2023/10/21 00:39:22;;;;;;;2.50;1.20;;;15.20;75.20;;;;;;5008042;28;20804;-69
2023/10/21 00:41:47;;;;;;;1.90;1.07;;;15.20;74.80;;;;;;5009799;28;20419;-69
2023/10/21 00:44:13;;;;;;;1.63;0.80;;;15.30;74.80;;;;;;5001448;28;20410;-68
2023/10/21 00:46:40;;;;;;;1.63;0.90;;;15.30;74.80;;;;;;5007984;28;20538;-69
2023/10/21 00:49:05;;;;;;;1.43;0.90;;;15.20;74.80;;;;;;5007592;28;20221;-68
2023/10/21 00:51:32;;;;;;;1.83;0.90;;;15.20;74.80;;;;;;5012397;28;20533;-68
2023/10/21 00:54:00;;;;;;;1.33;0.90;;;15.20;75.10;;;;;;5003952;28;20271;-70
2023/10/21 00:56:26;;;;;;;3.80;1.00;;;15.20;75.10;;;;;;5003714;28;20502;-68
2023/10/21 00:58:52;;;;;;;4.40;0.90;;;15.20;75.20;;;;;;5000275;28;20508;-67
2023/10/21 01:01:17;;;;;;;1.10;0.70;;;15.20;75.40;;;;;;5009125;28;20191;-69
2023/10/21 01:03:43;;;;;;;1.63;0.87;;;15.20;75.50;;;;;;5010602;28;20866;-68
2023/10/21 01:06:09;;;;;;;2.30;0.90;;;15.10;75.70;;;;;;5006439;28;20214;-67
2023/10/21 01:08:42;;;;;;;2.17;1.00;;;15.10;75.70;;;;;;5010399;28;20194;-69
2023/10/21 01:11:08;;;;;;;2.53;1.20;;;15.10;75.80;;;;;;5018109;28;20629;-69
2023/10/21 01:13:34;;;;;;;1.90;0.80;;;15.10;76.10;;;;;;4997073;28;20773;-68
2023/10/21 01:16:00;;;;;;;2.83;0.80;;;15.00;75.90;;;;;;4998481;28;20984;-68
2023/10/21 01:18:25;;;;;;;2.00;1.07;;;15.00;76.10;;;;;;5012249;28;20205;-69
2023/10/21 01:20:54;;;;;;;1.63;0.80;;;15.10;75.80;;;;;;4999330;28;20677;-68
2023/10/21 01:23:19;;;;;;;2.00;1.40;;;15.10;75.70;;;;;;5002218;28;20344;-67
2023/10/21 01:25:45;;;;;;;1.30;0.80;;;15.10;75.70;;;;;;5001851;28;20962;-67
2023/10/21 01:28:12;;;;;;;2.40;0.80;;;15.10;75.70;;;;;;5001133;28;20194;-69
2023/10/21 01:30:37;;;;;;;1.37;0.90;;;15.10;75.70;;;;;;5006325;28;20182;-69
2023/10/21 01:33:03;;;;;;;1.60;0.90;;;15.10;75.80;;;;;;5004669;28;20420;-70
2023/10/21 01:35:29;;;;;;;1.40;0.80;;;15.00;76.10;;;;;;5003493;28;20270;-68
2023/10/21 01:37:54;;;;;;;1.10;0.80;;;15.00;76.10;;;;;;5012022;28;20460;-69
2023/10/21 01:40:20;;;;;;;5.00;2.03;;;15.00;76.40;;;;;;5009287;28;20664;-69
2023/10/21 01:42:45;;;;;;;2.73;1.60;;;14.90;76.40;;;;;;5011654;28;20206;-71
2023/10/21 01:45:11;;;;;;;2.90;1.20;;;14.90;76.50;;;;;;5013632;28;20422;-68
2023/10/21 01:47:37;;;;;;;1.77;1.03;;;14.90;76.50;;;;;;5010797;28;20185;-68
2023/10/21 01:50:07;;;;;;;1.07;0.90;;;14.90;76.50;;;;;;5000057;28;20210;-69
2023/10/21 01:52:35;;;;;;;2.33;0.70;;;14.90;76.50;;;;;;5010024;28;20421;-69
2023/10/21 01:55:03;;;;;;;1.20;0.80;;;14.90;76.50;;;;;;5016001;28;20800;-68
2023/10/21 01:57:29;;;;;;;0.90;0.70;;;14.90;76.70;;;;;;5009742;28;20482;-68
2023/10/21 01:59:55;;;;;;;1.00;0.70;;;14.90;76.70;;;;;;4999272;28;20452;-69
2023/10/21 02:02:20;;;;;;;1.50;0.80;;;14.90;76.70;;;;;;5009612;28;20446;-69
2023/10/21 02:04:46;;;;;;;1.10;0.90;;;14.90;76.50;;;;;;5006295;28;20655;-70
2023/10/21 02:07:12;;;;;;;2.83;0.90;;;14.90;76.50;;;;;;5009667;28;20553;-68
2023/10/21 02:09:37;;;;;;;1.97;0.67;;;14.90;76.40;;;;;;5009759;28;20187;-69
2023/10/21 02:12:03;;;;;;;2.00;0.60;;;14.90;76.40;;;;;;5013353;28;20218;-70
2023/10/21 02:14:28;;;;;;;0.80;0.60;;;14.90;76.20;;;;;;5006444;28;20223;-70
2023/10/21 02:16:55;;;;;;;0.77;0.60;;;14.90;76.10;;;;;;5007684;28;20223;-69
2023/10/21 02:19:21;;;;;;;2.50;0.90;;;15.00;75.80;;;;;;5010826;28;20182;-69
2023/10/21 02:21:47;;;;;;;1.33;0.67;;;15.00;75.90;;;;;;5004307;28;20947;-68
2023/10/21 02:24:13;;;;;;;1.40;0.77;;;14.90;75.90;;;;;;5005173;28;20427;-69
2023/10/21 02:26:39;;;;;;;0.97;0.70;;;14.90;76.10;;;;;;5008220;28;20481;-71
2023/10/21 02:29:04;;;;;;;1.53;0.60;;;14.90;75.90;;;;;;5007313;28;20190;-69
2023/10/21 02:31:30;;;;;;;1.00;0.70;;;15.00;75.90;;;;;;5008682;28;20193;-70
2023/10/21 02:33:56;;;;;;;1.20;0.60;;;14.90;76.10;;;;;;5012580;28;20183;-67
2023/10/21 02:36:22;;;;;;;0.80;0.50;;;14.90;76.20;;;;;;5005691;28;20286;-70
2023/10/21 02:38:50;;;;;;;0.97;0.63;;;14.80;76.20;;;;;;5016542;28;20218;-70
2023/10/21 02:41:15;;;;;;;0.80;0.70;;;14.70;76.50;;;;;;5009508;28;20684;-69
2023/10/21 02:43:41;;;;;;;4.10;0.70;;;14.80;76.70;;;;;;5022876;28;20504;-70
2023/10/21 02:46:12;;;;;;;1.90;0.70;;;14.70;76.50;;;;;;5006966;28;20230;-69
2023/10/21 02:48:39;;;;;;;1.10;0.67;;;14.70;76.70;;;;;;5008530;28;20178;-70
2023/10/21 02:51:12;;;;;;;1.37;0.80;;;14.70;76.70;;;;;;5009251;28;20430;-69
2023/10/21 02:53:39;;;;;;;0.90;0.70;;;14.70;76.70;;;;;;5007172;28;20421;-69
2023/10/21 02:56:06;;;;;;;1.20;0.90;;;14.70;76.50;;;;;;5002958;28;20482;-68
2023/10/21 02:58:32;;;;;;;1.10;0.77;;;14.70;76.50;;;;;;5013860;28;20546;-70
2023/10/21 03:01:02;;;;;;;1.60;1.00;;;14.70;76.50;;;;;;5004909;28;20419;-70
2023/10/21 03:03:28;;;;;;;1.10;0.73;;;14.70;76.50;;;;;;5008110;28;20426;-70
2023/10/21 03:05:53;;;;;;;1.10;0.70;;;14.60;76.70;;;;;;5007439;28;20459;-70
2023/10/21 03:08:19;;;;;;;1.33;0.90;;;14.70;76.50;;;;;;5005154;28;20187;-70
2023/10/21 03:10:45;;;;;;;1.47;0.70;;;14.60;76.50;;;;;;5003974;28;20205;-68
2023/10/21 03:13:10;;;;;;;1.03;0.60;;;14.70;76.40;;;;;;5009886;28;20418;-68
2023/10/21 03:15:36;;;;;;;14.50;1.00;;;14.70;76.40;;;;;;5011178;28;20686;-69
2023/10/21 03:18:02;;;;;;;1.37;0.73;;;14.60;76.50;;;;;;5003538;28;20636;-70
2023/10/21 03:20:32;;;;;;;1.47;0.70;;;14.60;76.70;;;;;;5007844;28;20186;-69
2023/10/21 03:22:57;;;;;;;2.50;0.70;;;14.60;76.50;;;;;;5004948;28;20942;-70
2023/10/21 03:25:23;;;;;;;1.97;0.90;;;14.60;76.40;;;;;;5009274;28;20467;-69
2023/10/21 03:27:48;;;;;;;1.57;0.80;;;14.60;76.40;;;;;;5003455;28;21064;-68
2023/10/21 03:30:14;;;;;;;1.70;0.70;;;14.60;76.40;;;;;;5007071;28;20191;-69
2023/10/21 03:32:40;;;;;;;1.67;0.60;;;14.60;76.40;;;;;;5009853;28;20224;-69
2023/10/21 03:35:06;;;;;;;0.70;0.50;;;14.60;76.40;;;;;;5003770;28;20560;-67
2023/10/21 03:37:34;;;;;;;1.20;0.70;;;14.60;76.20;;;;;;5002394;28;20465;-67
2023/10/21 03:39:59;;;;;;;1.10;0.60;;;14.60;76.20;;;;;;5003839;28;20523;-69
2023/10/21 03:42:26;;;;;;;0.90;0.60;;;14.60;76.20;;;;;;4998643;28;20418;-68
2023/10/21 03:44:51;;;;;;;1.30;0.70;;;14.60;76.40;;;;;;5004983;28;20194;-71
2023/10/21 03:47:17;;;;;;;1.43;0.83;;;14.60;76.20;;;;;;5002001;28;20474;-70
2023/10/21 03:49:44;;;;;;;0.77;0.57;;;14.60;76.40;;;;;;5005022;28;20537;-67
2023/10/21 03:52:09;;;;;;;1.07;0.80;;;14.50;76.40;;;;;;4997045;28;20258;-70
2023/10/21 03:54:35;;;;;;;1.80;1.10;;;14.50;76.40;;;;;;5005363;28;20508;-68
2023/10/21 03:57:00;;;;;;;1.13;0.73;;;14.50;76.70;;;;;;4998973;28;20207;-70
2023/10/21 03:59:26;;;;;;;1.10;0.70;;;14.50;76.40;;;;;;5001776;28;20191;-69
2023/10/21 04:01:52;;;;;;;1.40;0.90;;;14.50;76.50;;;;;;5004456;28;20178;-70
2023/10/21 04:04:17;;;;;;;1.87;0.80;;;14.50;76.70;;;;;;5001810;28;20192;-69
2023/10/21 04:06:43;;;;;;;0.90;0.70;;;14.40;77.00;;;;;;5004347;28;20229;-71
2023/10/21 04:09:09;;;;;;;1.70;1.00;;;14.40;77.30;;;;;;5001483;28;20213;-71
2023/10/21 04:11:35;;;;;;;1.10;0.70;;;14.40;77.60;;;;;;5001231;28;20586;-70
2023/10/21 04:14:01;;;;;;;2.23;1.00;;;14.40;77.60;;;;;;5002982;28;20513;-69
2023/10/21 04:16:26;;;;;;;1.07;0.77;;;14.40;77.60;;;;;;5000560;28;20507;-70
2023/10/21 04:18:52;;;;;;;2.00;0.90;;;14.40;77.80;;;;;;5003907;28;20255;-70
2023/10/21 04:21:19;;;;;;;1.80;0.80;;;14.30;78.00;;;;;;4998476;28;20213;-71
2023/10/21 04:23:44;;;;;;;1.87;0.83;;;14.20;78.40;;;;;;5010763;28;20183;-69
2023/10/21 04:26:10;;;;;;;1.63;0.80;;;14.20;78.60;;;;;;5003933;28;20491;-69
2023/10/21 04:28:35;;;;;;;5.53;1.20;;;14.10;78.70;;;;;;5011061;28;20686;-69
2023/10/21 04:31:01;;;;;;;2.90;0.80;;;14.30;77.80;;;;;;5015567;28;20257;-68
2023/10/21 04:33:26;;;;;;;1.30;0.80;;;14.30;77.80;;;;;;5010057;28;20258;-70
2023/10/21 04:35:52;;;;;;;1.57;0.80;;;14.30;77.70;;;;;;5009204;28;20202;-70
2023/10/21 04:38:18;;;;;;;2.90;1.17;;;14.30;77.80;;;;;;5007990;28;20610;-69
2023/10/21 04:40:44;;;;;;;1.33;0.73;;;14.30;77.60;;;;;;5006076;28;20242;-70
2023/10/21 04:43:09;;;;;;;1.90;1.10;;;14.30;77.80;;;;;;5005257;28;20840;-69
2023/10/21 04:45:35;;;;;;;4.20;0.90;;;14.20;78.10;;;;;;5009792;28;20573;-69
2023/10/21 04:48:01;;;;;;;1.57;0.90;;;14.20;78.10;;;;;;5002932;28;20189;-68
2023/10/21 04:50:27;;;;;;;4.87;1.00;;;14.40;78.00;;;;;;5005635;28;20269;-69
2023/10/21 04:52:52;;;;;;;1.57;0.83;;;14.50;77.30;;;;;;4999467;28;20505;-69
2023/10/21 04:55:18;;;;;;;1.20;0.70;;;14.60;77.00;;;;;;5001813;28;20927;-70
2023/10/21 04:57:43;;;;;;;1.50;0.80;;;14.50;77.10;;;;;;5000071;28;20217;-69
2023/10/21 05:00:10;;;;;;;1.23;0.70;;;14.60;77.00;;;;;;4999964;28;20198;-68
2023/10/21 05:02:35;;;;;;;0.90;0.60;;;14.70;76.50;;;;;;5006185;28;20249;-70
2023/10/21 05:05:01;;;;;;;1.70;0.90;;;14.80;76.40;;;;;;5001126;28;20511;-68
2023/10/21 05:07:26;;;;;;;2.70;0.73;;;14.80;76.40;;;;;;5001368;28;20187;-69
2023/10/21 05:09:52;;;;;;;1.67;0.60;;;14.90;76.20;;;;;;5006841;28;20198;-69
2023/10/21 05:12:19;;;;;;;2.70;0.80;;;15.00;75.90;;;;;;5009999;28;20277;-70
2023/10/21 05:14:45;;;;;;;0.80;0.70;;;15.10;75.70;;;;;;5011153;28;20214;-68
2023/10/21 05:17:11;;;;;;;0.97;0.77;;;15.10;75.80;;;;;;5014117;28;20452;-67
2023/10/21 05:19:37;;;;;;;1.27;0.60;;;15.10;75.70;;;;;;5011669;28;20437;-69
2023/10/21 05:22:02;;;;;;;1.30;0.80;;;15.10;75.80;;;;;;5006338;28;20196;-69
2023/10/21 05:24:28;;;;;;;1.00;0.70;;;15.10;75.70;;;;;;5007343;28;20193;-70
2023/10/21 05:26:53;;;;;;;1.97;0.80;;;15.10;75.90;;;;;;5004906;28;20255;-70
2023/10/21 05:29:19;;;;;;;0.80;0.70;;;15.10;75.90;;;;;;5004658;28;20195;-69
2023/10/21 05:31:44;;;;;;;6.97;1.00;;;15.10;76.20;;;;;;5008837;28;20178;-70
2023/10/21 05:34:10;;;;;;;1.47;0.87;;;15.00;76.40;;;;;;5003036;28;20179;-68
2023/10/21 05:36:35;;;;;;;1.97;1.40;;;15.00;76.50;;;;;;5009313;28;20213;-68
2023/10/21 05:39:01;;;;;;;1.37;0.97;;;15.00;76.50;;;;;;5003785;28;20216;-69
2023/10/21 05:41:28;;;;;;;2.70;0.80;;;15.00;76.70;;;;;;5008073;28;20186;-69
2023/10/21 05:43:53;;;;;;;0.90;0.70;;;14.90;76.70;;;;;;5004443;28;20208;-68
2023/10/21 05:46:19;;;;;;;1.30;0.90;;;14.90;76.80;;;;;;5009154;28;21168;-70
2023/10/21 05:48:44;;;;;;;2.10;0.80;;;14.90;77.00;;;;;;5005835;28;20667;-69
2023/10/21 05:51:10;;;;;;;2.00;0.80;;;14.90;76.80;;;;;;5011182;28;20237;-69
2023/10/21 05:53:35;;;;;;;1.20;0.80;;;15.00;76.80;;;;;;5006047;28;20694;-71
2023/10/21 05:56:01;;;;;;;1.60;0.70;;;15.00;76.70;;;;;;5003762;28;20202;-70
2023/10/21 05:58:27;;;;;;;1.47;1.00;;;14.90;76.70;;;;;;5004792;28;20206;-71
2023/10/21 06:00:53;;;;;;;1.67;1.00;;;14.90;76.80;;;;;;5009945;28;20668;-69
2023/10/21 06:03:18;;;;;;;0.90;0.53;;;15.00;76.80;;;;;;5009758;28;20185;-68
2023/10/21 06:05:44;;;;;;;7.80;1.00;;;14.90;76.70;;;;;;5007963;28;20254;-67
2023/10/21 06:08:10;;;;;;;1.60;0.83;;;14.90;76.70;;;;;;5011689;28;20262;-68
2023/10/21 06:10:36;;;;;;;2.00;0.60;;;14.90;76.80;;;;;;5011436;28;20311;-70
2023/10/21 06:13:02;;;;;;;2.37;1.00;;;14.90;76.80;;;;;;5008748;28;20521;-68
2023/10/21 06:15:27;;;;;;;1.17;0.73;;;14.90;76.80;;;;;;5006780;28;20215;-68
2023/10/21 06:17:53;;;;;;;3.87;1.50;;;14.90;76.80;;;;;;5004158;28;20218;-68
2023/10/21 06:20:19;;;;;;;1.20;0.70;;;14.90;76.70;;;;;;5006917;28;20520;-67
2023/10/21 06:22:44;;;;;;;4.83;0.87;;;14.90;76.50;;;;;;5003321;28;20559;-68
2023/10/21 06:25:10;;;;;;;1.37;0.80;;;14.90;76.50;;;;;;5005391;28;20184;-67
2023/10/21 06:27:37;;;;;;;2.13;0.90;;;14.90;76.50;;;;;;5014652;28;20267;-68
2023/10/21 06:30:03;;;;;;;2.70;0.90;;;14.90;76.50;;;;;;5002700;28;20532;-69
2023/10/21 06:32:30;;;;;;;1.77;0.90;;;14.90;76.50;;;;;;5003184;28;20426;-69
2023/10/21 06:34:56;;;;;;;0.77;0.60;;;14.90;76.50;;;;;;5001412;28;20434;-69
2023/10/21 06:37:21;;;;;;;1.10;0.80;;;14.80;76.50;;;;;;5007244;28;20476;-69
2023/10/21 06:39:47;;;;;;;2.37;0.77;;;14.90;76.20;;;;;;5002983;28;20715;-68
2023/10/21 06:42:13;;;;;;;1.20;0.77;;;14.90;75.90;;;;;;5001632;28;20273;-69
2023/10/21 06:44:39;;;;;;;1.00;0.80;;;14.90;75.80;;;;;;5006547;28;20652;-69
2023/10/21 06:47:05;;;;;;;1.10;0.70;;;14.90;75.70;;;;;;5004551;28;20522;-69
2023/10/21 06:49:30;;;;;;;1.30;0.80;;;14.90;75.50;;;;;;5002809;28;20589;-68
2023/10/21 06:51:57;;;;;;;1.13;0.60;;;14.90;75.70;;;;;;5014279;28;20266;-69
2023/10/21 06:54:23;;;;;;;2.80;0.80;;;14.90;75.50;;;;;;5009566;28;20184;-68
2023/10/21 06:56:49;;;;;;;1.00;0.90;;;14.80;75.50;;;;;;5003054;28;20481;-68
2023/10/21 06:59:15;;;;;;;7.30;1.33;;;14.80;75.70;;;;;;5002053;28;20856;-67
2023/10/21 07:01:41;;;;;;;1.57;0.83;;;14.80;75.40;;;;;;5012559;28;20670;-67
2023/10/21 07:04:09;;;;;;;1.03;0.80;;;14.80;75.40;;;;;;5006900;28;20265;-67
2023/10/21 07:06:36;;;;;;;1.73;0.80;;;14.80;75.40;;;;;;5008135;28;20714;-67
2023/10/21 07:09:02;;;;;;;1.50;0.80;;;14.80;75.20;;;;;;5003040;28;20954;-70
2023/10/21 07:11:27;;;;;;;1.17;0.70;;;14.80;75.20;;;;;;5005552;28;20423;-68
2023/10/21 07:13:53;;;;;;;3.30;1.10;;;14.80;74.90;;;;;;5005015;28;20283;-69
2023/10/21 07:16:19;;;;;;;1.70;0.70;;;14.80;75.10;;;;;;5000631;28;20214;-69
2023/10/21 07:18:45;;;;;;;1.30;0.77;;;14.80;75.20;;;;;;5000237;28;20462;-69
2023/10/21 07:21:10;;;;;;;1.23;0.80;;;14.90;74.90;;;;;;5000717;28;20722;-67
2023/10/21 07:23:36;;;;;;;1.43;0.90;;;14.90;75.10;;;;;;5004238;28;20205;-68
2023/10/21 07:26:02;;;;;;;1.13;0.80;;;14.90;75.10;;;;;;5007920;28;20218;-70
2023/10/21 07:28:28;;;;;;;1.17;0.87;;;14.90;74.90;;;;;;5008575;28;20262;-70
2023/10/21 07:30:54;;;;;;;1.50;0.90;;;14.90;75.10;;;;;;5002396;28;20854;-68
2023/10/21 07:33:22;;;;;;;1.77;1.13;;;14.90;74.90;;;;;;5006093;28;20515;-68
2023/10/21 07:35:50;;;;;;;2.40;0.90;;;14.90;74.90;;;;;;5002982;28;20288;-69
2023/10/21 07:38:16;;;;;;;3.27;1.00;;;14.90;74.50;;;;;;5008999;28;20463;-67
2023/10/21 07:40:43;;;;;;;1.60;0.87;;;15.00;74.30;;;;;;5006150;28;20796;-65
2023/10/21 07:43:09;;;;;;;1.13;0.60;;;15.10;73.70;;;;;;5018867;28;20196;-69
2023/10/21 07:45:35;;;;;;;1.63;0.80;;;15.10;73.60;;;;;;5012871;28;20460;-68
2023/10/21 07:48:02;;;;;;;0.80;0.60;;;15.20;72.90;;;;;;5007424;28;20809;-67
2023/10/21 07:50:28;;;;;;;1.90;0.90;;;15.30;72.70;;;;;;5001940;28;20439;-66
2023/10/21 07:52:54;;;;;;;2.87;0.80;;;15.40;72.30;;;;;;5008258;28;20453;-67
2023/10/21 07:55:19;;;;;;;2.50;0.80;;;15.40;72.10;;;;;;5005336;28;20725;-66
2023/10/21 07:57:45;;;;;;;1.10;0.70;;;15.50;71.80;;;;;;5006447;28;20238;-70
2023/10/21 08:00:14;;;;;;;1.20;0.60;;;15.50;72.00;;;;;;4996968;28;20334;-67
2023/10/21 08:02:40;;;;;;;1.53;0.90;;;15.50;71.40;;;;;;5002974;28;20218;-67
2023/10/21 08:05:07;;;;;;;1.20;0.80;;;15.50;71.60;;;;;;4993538;28;20440;-67
2023/10/21 08:07:33;;;;;;;1.20;0.83;;;15.60;71.70;;;;;;5003844;28;20543;-66
2023/10/21 08:09:59;;;;;;;1.83;0.70;;;15.60;71.10;;;;;;4998097;28;20954;-64
2023/10/21 08:12:25;;;;;;;1.50;0.90;;;15.60;71.00;;;;;;5001976;28;20475;-66
2023/10/21 08:14:51;;;;;;;2.20;0.80;;;15.60;70.80;;;;;;5001334;28;20181;-65
2023/10/21 08:17:17;;;;;;;1.37;0.83;;;15.60;70.20;;;;;;4997689;28;20724;-68
2023/10/21 08:19:43;;;;;;;2.60;0.90;;;15.70;69.90;;;;;;4997211;28;20195;-68
2023/10/21 08:22:10;;;;;;;1.10;0.60;;;15.70;69.80;;;;;;4998530;28;20438;-68
2023/10/21 08:24:36;;;;;;;2.07;0.80;;;15.70;69.90;;;;;;5000457;28;21088;-66
2023/10/21 08:27:04;;;;;;;1.00;0.70;;;15.80;69.50;;;;;;5014796;28;20542;-67
2023/10/21 08:29:30;;;;;;;1.00;0.60;;;15.80;69.40;;;;;;5003549;28;20951;-66
2023/10/21 08:31:55;;;;;;;2.23;0.70;;;15.80;68.80;;;;;;5003313;28;20463;-66
2023/10/21 08:34:22;;;;;;;1.77;0.67;;;15.90;68.80;;;;;;5003692;28;20961;-67
2023/10/21 08:36:48;;;;;;;1.70;0.70;;;15.90;68.30;;;;;;5003640;28;20862;-66
2023/10/21 08:39:14;;;;;;;1.53;0.77;;;15.90;68.50;;;;;;5010354;28;20482;-66
2023/10/21 08:41:40;;;;;;;3.20;0.80;;;16.00;68.20;;;;;;5005251;28;20436;-66
2023/10/21 08:44:08;;;;;;;3.67;0.70;;;16.10;68.00;;;;;;5005549;28;20189;-66
2023/10/21 08:46:34;;;;;;;2.90;0.90;;;16.10;67.50;;;;;;4999196;28;20547;-68
2023/10/21 08:49:03;;;;;;;1.27;0.87;;;16.00;67.60;;;;;;5005224;28;20427;-66
2023/10/21 08:51:30;;;;;;;3.03;1.20;;;16.10;67.30;;;;;;5000932;28;20483;-68
2023/10/21 08:54:01;;;;;;;7.13;0.90;;;16.10;67.50;;;;;;5002326;28;20478;-67
2023/10/21 08:56:29;;;;;;;2.23;0.80;;;16.10;67.20;;;;;;4999263;28;20461;-66
2023/10/21 08:58:58;;;;;;;2.20;1.00;;;16.10;67.00;;;;;;5006414;28;20820;-67
2023/10/21 09:01:24;;;;;;;5.20;0.83;;;16.10;67.00;;;;;;4997343;28;20471;-68
2023/10/21 09:03:50;;;;;;;1.20;0.87;;;16.00;66.70;;;;;;5002831;28;20510;-69
2023/10/21 09:06:17;;;;;;;0.97;0.60;;;16.10;66.70;;;;;;4999681;28;20503;-69
2023/10/21 09:08:45;;;;;;;3.13;0.80;;;16.10;66.90;;;;;;5003023;28;20601;-69
2023/10/21 09:11:12;;;;;;;2.33;1.00;;;16.20;67.00;;;;;;5004202;28;20420;-67
2023/10/21 09:13:40;;;;;;;2.10;1.03;;;16.30;66.70;;;;;;5003017;28;20937;-67
2023/10/21 09:16:21;;;;;;;2.00;0.70;;;16.50;66.30;;;;;;4999492;28;21031;-69
2023/10/21 09:18:59;;;;;;;7.20;1.23;;;16.60;66.30;;;;;;5002904;28;20533;-69
2023/10/21 09:21:37;;;;;;;1.53;0.67;;;16.60;66.10;;;;;;5001232;28;21004;-69
2023/10/21 09:24:10;;;;;;;1.27;0.63;;;16.60;66.10;;;;;;5001112;28;20424;-66
2023/10/21 09:26:48;;;;;;;1.60;0.73;;;16.60;66.10;;;;;;5007873;28;20475;-69
2023/10/21 09:29:18;;;;;;;2.00;0.90;;;16.60;65.80;;;;;;4998903;28;20472;-67
2023/10/21 09:31:51;;;;;;;2.07;1.00;;;16.70;65.80;;;;;;5008331;28;20984;-69
2023/10/21 09:34:34;;;;;;;1.27;0.70;;;16.70;65.60;;;;;;5005424;28;20566;-67
2023/10/21 09:37:04;;;;;;;2.77;0.80;;;16.70;65.40;;;;;;5003102;28;20496;-67
2023/10/21 09:39:37;;;;;;;2.47;0.90;;;16.70;65.10;;;;;;5007747;28;20551;-67
2023/10/21 09:42:05;;;;;;;1.07;0.80;;;16.80;65.30;;;;;;5001936;28;20432;-68
2023/10/21 09:44:31;;;;;;;1.90;0.80;;;16.90;65.30;;;;;;5006866;28;20492;-66
2023/10/21 09:47:00;;;;;;;2.50;0.80;;;17.00;65.00;;;;;;4994626;28;21005;-69
2023/10/21 09:49:27;;;;;;;2.60;0.97;;;17.00;65.10;;;;;;4998594;28;20527;-66
2023/10/21 09:52:09;;;;;;;1.37;0.60;;;17.00;65.70;;;;;;4997525;28;20421;-68
2023/10/21 09:54:42;;;;;;;1.83;0.80;;;17.00;64.80;;;;;;5007086;28;20447;-67
2023/10/21 09:57:12;;;;;;;1.50;0.77;;;16.90;65.60;;;;;;4993440;28;20468;-67
2023/10/21 09:59:38;;;;;;;2.30;0.80;;;17.00;65.60;;;;;;5022945;28;20582;-67
2023/10/21 10:02:07;;;;;;;1.37;0.87;;;17.00;65.30;;;;;;5000732;28;20484;-67
2023/10/21 10:04:38;;;;;;;2.00;0.87;;;17.20;65.10;;;;;;5008623;28;20937;-68
2023/10/21 10:07:07;;;;;;;4.10;1.10;;;17.30;65.00;;;;;;5005863;28;20465;-67
2023/10/21 10:09:38;;;;;;;5.53;1.30;;;17.40;64.70;;;;;;5006105;28;20425;-65
2023/10/21 10:12:12;;;;;;;2.23;0.90;;;17.50;64.40;;;;;;5004359;28;20439;-68
2023/10/21 10:14:37;;;;;;;1.60;0.80;;;17.50;64.20;;;;;;5003123;28;20445;-68
2023/10/21 10:17:06;;;;;;;2.20;0.80;;;17.50;64.70;;;;;;5008389;28;20495;-69
2023/10/21 10:19:42;;;;;;;1.30;0.67;;;17.60;63.70;;;;;;5002780;28;20206;-69
2023/10/21 10:22:28;;;;;;;2.20;0.90;;;17.60;64.20;;;;;;4999464;28;20420;-68
2023/10/21 10:24:55;;;;;;;2.30;0.90;;;17.70;63.80;;;;;;5005790;28;20486;-67
2023/10/21 10:27:25;;;;;;;2.20;0.90;;;17.70;63.50;;;;;;5000334;28;20899;-66
2023/10/21 10:29:51;;;;;;;2.93;1.43;;;17.90;63.50;;;;;;5004842;28;20432;-68
2023/10/21 10:32:17;;;;;;;2.10;0.90;;;17.90;62.90;;;;;;5006428;28;20454;-65
2023/10/21 10:35:09;;;;;;;3.30;0.90;;;17.80;63.20;;;;;;5002785;28;20482;-67
2023/10/21 10:37:37;;;;;;;1.90;0.90;;;18.00;63.10;;;;;;5003259;28;20358;-67
2023/10/21 10:40:33;;;;;;;1.30;0.90;;;18.20;62.60;;;;;;5003135;28;20438;-66
2023/10/21 10:42:59;;;;;;;1.57;0.90;;;18.10;62.50;;;;;;4997033;28;20464;-66
2023/10/21 10:45:25;;;;;;;1.33;0.87;;;18.00;62.80;;;;;;5002010;28;20499;-66
2023/10/21 10:48:04;;;;;;;2.93;0.70;;;17.90;63.20;;;;;;4999056;28;20190;-67
2023/10/21 10:50:31;;;;;;;1.20;0.70;;;17.90;63.50;;;;;;5003818;28;20863;-69
2023/10/21 10:52:57;;;;;;;1.53;0.77;;;17.90;63.80;;;;;;4999196;28;20428;-69
2023/10/21 10:55:24;;;;;;;2.30;1.00;;;18.00;63.40;;;;;;5005538;28;20520;-67
2023/10/21 10:57:51;;;;;;;1.60;0.80;;;18.20;63.20;;;;;;5000550;28;20524;-67
2023/10/21 11:00:20;;;;;;;1.70;1.00;;;18.40;63.20;;;;;;4999244;28;20180;-65
2023/10/21 11:02:49;;;;;;;2.80;0.90;;;18.40;63.20;;;;;;4999598;28;20883;-69
2023/10/21 11:05:22;;;;;;;4.43;1.00;;;18.10;63.10;;;;;;5001975;28;20959;-66
2023/10/21 11:07:54;;;;;;;2.03;1.10;;;18.00;63.10;;;;;;5002502;28;20457;-67
2023/10/21 11:10:21;;;;;;;1.40;0.70;;;17.90;63.40;;;;;;5005213;28;20433;-66
2023/10/21 11:12:51;;;;;;;2.10;0.80;;;17.90;63.20;;;;;;5003484;28;20425;-68
2023/10/21 11:15:18;;;;;;;2.07;0.70;;;17.80;62.60;;;;;;5001645;28;20449;-67
2023/10/21 11:17:48;;;;;;;1.70;0.83;;;17.80;62.20;;;;;;5007934;28;20461;-66
2023/10/21 11:20:15;;;;;;;2.47;1.00;;;17.90;61.60;;;;;;5006100;28;20886;-64
2023/10/21 11:22:41;;;;;;;0.80;0.60;;;18.00;61.70;;;;;;5003968;28;20483;-67
2023/10/21 11:25:08;;;;;;;1.23;0.80;;;18.00;61.20;;;;;;5006051;28;20430;-68
2023/10/21 11:27:35;;;;;;;4.10;0.77;;;17.90;61.30;;;;;;5008477;28;20449;-68
2023/10/21 11:30:01;;;;;;;1.87;0.80;;;17.70;61.30;;;;;;5000374;28;20450;-66
2023/10/21 11:32:30;;;;;;;1.00;0.67;;;17.60;61.60;;;;;;5003536;28;20479;-68
2023/10/21 11:35:01;;;;;;;2.10;0.80;;;17.60;62.00;;;;;;4998987;28;20178;-66
2023/10/21 11:37:27;;;;;;;4.40;1.00;;;17.70;62.30;;;;;;5005135;28;20500;-69
2023/10/21 11:39:52;;;;;;;1.47;0.70;;;17.70;62.00;;;;;;4999572;28;20415;-69
2023/10/21 11:42:18;;;;;;;1.50;0.80;;;17.70;61.60;;;;;;5004458;28;20274;-67
2023/10/21 11:44:57;;;;;;;1.67;0.70;;;17.60;62.00;;;;;;5002334;28;20182;-69
2023/10/21 11:47:25;;;;;;;2.00;0.93;;;17.60;61.90;;;;;;5004340;28;20540;-68
2023/10/21 11:49:52;;;;;;;1.83;0.80;;;17.70;62.00;;;;;;4996416;28;20891;-68
2023/10/21 11:52:18;;;;;;;2.80;0.90;;;17.90;62.00;;;;;;5002592;28;20422;-67
2023/10/21 11:54:48;;;;;;;1.63;0.80;;;17.90;61.30;;;;;;5002615;28;20417;-68
2023/10/21 11:57:41;;;;;;;2.57;1.17;;;18.10;61.00;;;;;;5002162;28;20506;-69
2023/10/21 12:21:19;;;;;;;1.10;0.70;;;18.70;58.80;;;;;;5000110;28;20489;-66
2023/10/21 12:26:27;;;;;;;2.20;0.80;;;18.50;59.70;;;;;;5002060;28;21063;-67
2023/10/21 12:42:25;;;;;;;1.03;0.70;;;18.00;60.60;;;;;;5007821;28;20424;-68
2023/10/21 12:44:55;;;;;;;2.20;0.83;;;17.90;61.00;;;;;;5000396;28;20537;-67
2023/10/21 12:47:22;;;;;;;2.23;0.80;;;17.90;61.20;;;;;;5008934;28;20470;-66
2023/10/21 12:49:50;;;;;;;1.53;0.70;;;17.90;61.30;;;;;;5010561;28;20438;-68
2023/10/21 12:52:16;;;;;;;2.97;0.83;;;17.80;61.50;;;;;;5008258;28;20430;-66
2023/10/21 12:54:43;;;;;;;1.90;0.90;;;17.70;61.30;;;;;;5004451;28;20528;-68
2023/10/21 12:57:10;;;;;;;1.70;0.70;;;17.60;61.70;;;;;;5001895;28;20460;-67
2023/10/21 12:59:36;;;;;;;2.30;0.80;;;17.70;61.60;;;;;;5002940;28;21005;-67
2023/10/21 13:02:07;;;;;;;3.17;0.80;;;17.80;61.50;;;;;;5006212;28;20424;-69
2023/10/21 13:04:40;;;;;;;1.63;0.90;;;17.90;61.20;;;;;;5001495;28;20190;-67
2023/10/21 13:07:06;;;;;;;4.30;0.90;;;17.90;61.30;;;;;;4997232;28;20460;-69
2023/10/21 13:09:33;;;;;;;1.63;0.97;;;18.00;61.30;;;;;;5005308;28;20502;-66
2023/10/21 13:12:00;;;;;;;2.37;1.10;;;18.00;60.30;;;;;;4999881;28;20437;-67
2023/10/21 13:14:29;;;;;;;1.57;1.10;;;17.90;60.00;;;;;;4992318;28;20431;-68
2023/10/21 13:16:55;;;;;;;1.10;0.73;;;17.80;60.70;;;;;;5001279;28;21044;-68
2023/10/21 13:19:22;;;;;;;1.00;0.70;;;17.80;61.00;;;;;;4995826;28;20564;-67
2023/10/21 13:21:48;;;;;;;1.73;0.90;;;17.80;60.60;;;;;;4997421;28;20183;-67
2023/10/21 13:24:13;;;;;;;1.80;0.90;;;17.90;60.60;;;;;;4996834;28;20437;-66